Time;durP1;ratioP1;P1;durP2;ratioP2;P2;SDS_P1;SDS_P2;PMS_P1;PMS_P2;Temp;Humidity;BMP_temperature;BMP_pressure;BME280_temperature;BME280_humidity;BME280_pressure;Samples;Min_cycle;Max_cycle;Signal;HPM_P1;HPM_P2
2022/01/14 00:01:05;;;;;;;92.63;16.25;;;;;;;2.88;92.01;103747.56;5066675;28;20024;-91
2022/01/14 00:03:31;;;;;;;81.25;16.40;;;;;;;2.92;92.06;103759.94;5064996;28;20024;-92
2022/01/14 00:05:56;;;;;;;139.30;19.88;;;;;;;2.77;92.55;103754.13;5053448;28;20390;-91
2022/01/14 00:08:21;;;;;;;215.85;25.45;;;;;;;2.81;92.56;103758.63;5054827;28;20388;-91
2022/01/14 00:10:49;;;;;;;110.47;16.98;;;;;;;2.91;92.35;103763.38;5052074;28;20592;-91
2022/01/14 00:13:46;;;;;;;86.47;15.60;;;;;;;2.90;92.20;103752.88;5053998;28;20030;-91
2022/01/14 00:16:02;;;;;;;24.65;8.23;;;;;;;3.02;91.99;103761.16;5064142;28;20192;-91
2022/01/14 00:18:27;;;;;;;69.57;12.13;;;;;;;2.96;92.25;103759.22;5055945;28;20495;-91
2022/01/14 00:20:52;;;;;;;118.10;17.40;;;;;;;2.88;92.37;103754.53;5053615;28;20318;-91
2022/01/14 00:23:19;;;;;;;95.80;16.08;;;;;;;2.87;92.39;103752.75;5057720;28;20048;-91
2022/01/14 00:34:01;;;;;;;163.57;22.05;;;;;;;2.56;92.93;103730.66;5066621;28;20063;-91
2022/01/14 00:36:26;;;;;;;70.15;14.05;;;;;;;2.59;93.02;103735.13;5053512;28;20036;-91
2022/01/14 00:38:51;;;;;;;118.47;16.48;;;;;;;2.59;92.57;103736.00;5056612;28;20040;-92
2022/01/14 00:41:17;;;;;;;99.65;16.38;;;;;;;2.42;93.31;103721.38;5051870;28;20043;-90
2022/01/14 00:43:43;;;;;;;61.65;12.38;;;;;;;2.57;92.90;103723.72;5066692;28;20514;-92
2022/01/14 00:46:09;;;;;;;55.83;14.65;;;;;;;2.52;92.66;103706.16;5052868;28;20101;-91
2022/01/14 00:48:38;;;;;;;60.75;14.38;;;;;;;2.63;92.73;103713.50;5053510;28;20387;-91
2022/01/14 00:51:03;;;;;;;84.18;14.63;;;;;;;2.58;92.74;103710.72;5053311;28;20093;-92
2022/01/14 00:53:29;;;;;;;82.57;15.10;;;;;;;2.57;92.71;103710.69;5055678;28;20430;-91
2022/01/14 00:56:05;;;;;;;47.97;12.13;;;;;;;2.70;91.88;103702.44;5055168;28;20035;-92
2022/01/14 01:01:14;;;;;;;71.85;14.73;;;;;;;2.71;92.20;103701.66;5065906;28;20047;-91
2022/01/14 01:03:40;;;;;;;82.63;16.25;;;;;;;2.63;92.19;103692.63;5063759;28;20099;-92
2022/01/14 01:06:06;;;;;;;68.13;12.50;;;;;;;2.58;92.27;103687.22;5047271;28;20060;-91
2022/01/14 01:08:33;;;;;;;161.70;20.40;;;;;;;2.61;92.08;103691.66;5056281;28;20517;-92
2022/01/14 01:10:59;;;;;;;42.00;12.25;;;;;;;2.59;92.19;103683.78;5050040;28;20514;-92
2022/01/14 01:13:29;;;;;;;89.78;15.63;;;;;;;2.59;92.19;103691.59;5050631;28;20059;-91
2022/01/14 01:15:56;;;;;;;55.25;13.40;;;;;;;2.52;92.35;103680.03;5053585;28;20044;-91
2022/01/14 01:18:22;;;;;;;136.95;22.38;;;;;;;2.43;92.53;103691.84;5052330;28;20071;-91
2022/01/14 01:20:48;;;;;;;60.28;12.93;;;;;;;2.51;92.19;103687.78;5064945;28;20035;-91
2022/01/14 01:23:13;;;;;;;38.42;10.13;;;;;;;2.53;92.11;103681.81;5050029;28;20021;-91
2022/01/14 01:25:44;;;;;;;89.45;14.20;;;;;;;2.53;92.15;103678.31;5061224;28;20044;-91
2022/01/14 01:28:09;;;;;;;54.63;10.85;;;;;;;2.62;91.98;103690.84;5051525;28;20025;-91
2022/01/14 01:33:03;;;;;;;50.88;13.05;;;;;;;2.51;92.30;103685.19;5063507;28;20064;-91
2022/01/14 01:35:29;;;;;;;32.90;8.98;;;;;;;2.59;92.07;103680.28;5051702;28;20024;-91
2022/01/14 01:37:55;;;;;;;116.97;18.60;;;;;;;2.41;92.12;103668.28;5064329;28;20125;-91
2022/01/14 01:40:22;;;;;;;89.20;18.35;;;;;;;2.19;92.54;103663.94;5064670;28;20028;-91
2022/01/14 01:42:47;;;;;;;67.70;12.40;;;;;;;2.37;92.47;103674.19;5046605;28;20029;-91
2022/01/14 01:45:20;;;;;;;59.10;11.52;;;;;;;2.38;92.54;103672.47;5052085;28;20101;-93
2022/01/14 01:47:50;;;;;;;35.00;9.23;;;;;;;2.49;92.17;103684.25;5053966;28;20028;-91
2022/01/14 01:50:18;;;;;;;108.25;15.52;;;;;;;2.37;92.32;103676.81;5053106;28;20501;-91
2022/01/14 01:52:44;;;;;;;89.40;14.48;;;;;;;2.42;92.36;103687.44;5063927;28;20032;-91
2022/01/14 01:55:09;;;;;;;80.97;14.55;;;;;;;2.29;92.34;103675.66;5051812;28;20028;-91
2022/01/14 01:57:36;;;;;;;140.40;20.00;;;;;;;2.29;92.03;103673.03;5063938;28;20031;-91
2022/01/14 02:00:06;;;;;;;125.75;14.07;;;;;;;2.32;92.38;103677.47;5050563;28;20373;-91
2022/01/14 02:02:35;;;;;;;101.13;15.52;;;;;;;2.30;92.00;103675.69;5052067;28;20029;-93
2022/01/14 02:05:01;;;;;;;37.60;7.57;;;;;;;2.39;92.08;103685.63;5049825;28;20044;-91
2022/01/14 02:07:27;;;;;;;86.72;15.05;;;;;;;2.30;92.11;103678.31;5051084;28;20540;-92
2022/01/14 02:09:52;;;;;;;36.67;10.63;;;;;;;2.34;91.96;103674.09;5054093;28;20040;-92
2022/01/14 02:12:19;;;;;;;46.30;11.35;;;;;;;2.41;91.84;103678.72;5053937;28;20024;-91
2022/01/14 02:15:07;;;;;;;20.52;8.48;;;;;;;2.39;92.00;103671.66;5046790;28;20033;-91
2022/01/14 02:17:53;;;;;;;41.40;9.55;;;;;;;2.39;91.91;103656.91;5064025;28;20082;-92
2022/01/14 02:23:05;;;;;;;111.57;13.85;;;;;;;2.38;91.73;103667.25;5064846;28;20046;-91
2022/01/14 02:25:31;;;;;;;80.50;12.48;;;;;;;2.34;91.99;103666.28;5062900;28;20033;-91
2022/01/14 02:28:05;;;;;;;66.20;12.13;;;;;;;2.25;92.22;103661.56;5050096;28;20058;-91
2022/01/14 02:30:31;;;;;;;83.03;12.05;;;;;;;2.21;92.18;103644.00;5055816;28;20513;-92
2022/01/14 02:32:57;;;;;;;68.30;12.95;;;;;;;2.20;92.10;103651.78;5054819;28;20052;-91
2022/01/14 02:35:23;;;;;;;116.57;15.18;;;;;;;2.22;91.76;103644.91;5053212;28;20029;-92
2022/01/14 02:37:48;;;;;;;107.35;13.52;;;;;;;2.23;92.00;103657.09;5054576;28;20078;-92
2022/01/14 02:40:14;;;;;;;48.10;11.63;;;;;;;2.28;91.81;103659.09;5057675;28;20060;-91
2022/01/14 02:42:40;;;;;;;39.33;10.77;;;;;;;2.22;91.99;103637.94;5055095;28;20021;-91
2022/01/14 02:45:08;;;;;;;44.92;10.68;;;;;;;2.25;91.99;103645.03;5055055;28;20482;-91
2022/01/14 02:47:33;;;;;;;90.25;14.73;;;;;;;2.22;91.88;103660.56;5055219;28;20395;-92
2022/01/14 02:50:03;;;;;;;112.82;14.35;;;;;;;2.18;92.22;103643.00;5068517;28;20048;-91
2022/01/14 02:52:42;;;;;;;143.45;16.95;;;;;;;2.14;92.09;103643.69;5055978;28;20473;-91
2022/01/14 02:55:18;;;;;;;118.32;15.15;;;;;;;2.20;92.01;103642.22;5067757;28;21218;-91
2022/01/14 02:57:49;;;;;;;108.80;14.50;;;;;;;2.23;92.20;103644.06;5053308;28;20046;-91
2022/01/14 03:00:17;;;;;;;93.22;13.25;;;;;;;2.20;92.19;103649.19;5056514;28;20024;-91
2022/01/14 03:02:45;;;;;;;74.75;12.85;;;;;;;2.20;91.87;103630.91;5067524;28;20032;-91
2022/01/14 03:05:10;;;;;;;124.35;16.30;;;;;;;2.08;92.46;103631.31;5054460;28;20035;-91
2022/01/14 03:07:37;;;;;;;99.25;14.60;;;;;;;1.99;92.27;103633.53;5067807;28;20422;-91
2022/01/14 03:10:04;;;;;;;97.80;15.93;;;;;;;1.99;92.24;103631.81;5056787;28;20538;-91
2022/01/14 03:12:30;;;;;;;86.18;13.10;;;;;;;2.03;92.27;103638.94;5056827;28;20098;-91
2022/01/14 03:14:55;;;;;;;92.45;14.30;;;;;;;1.98;92.37;103637.88;5052849;28;20070;-92
2022/01/14 03:17:20;;;;;;;56.38;11.27;;;;;;;2.02;92.14;103645.00;5067286;28;20491;-92
2022/01/14 03:19:47;;;;;;;97.70;13.82;;;;;;;2.10;92.27;103641.78;5056861;28;20052;-91
2022/01/14 03:22:23;;;;;;;89.78;13.00;;;;;;;2.09;92.02;103629.56;5067481;28;20149;-91
2022/01/14 03:27:14;;;;;;;131.18;13.70;;;;;;;2.10;92.00;103645.31;5067011;28;20127;-91
2022/01/14 03:29:39;;;;;;;76.35;11.32;;;;;;;2.09;92.17;103635.69;5065379;28;20052;-91
2022/01/14 03:32:05;;;;;;;93.72;13.07;;;;;;;2.07;92.00;103633.84;5067580;28;20044;-91
2022/01/14 03:34:31;;;;;;;120.93;14.32;;;;;;;1.95;92.04;103622.09;5057139;28;20028;-91
2022/01/14 03:36:56;;;;;;;114.38;15.82;;;;;;;2.06;91.96;103637.31;5053340;28;20428;-92
2022/01/14 03:39:22;;;;;;;56.35;11.40;;;;;;;2.12;92.10;103634.94;5067136;28;20085;-92
2022/01/14 03:41:48;;;;;;;73.75;11.23;;;;;;;2.12;92.06;103634.94;5056924;28;20032;-92
2022/01/14 03:44:14;;;;;;;75.22;11.18;;;;;;;2.14;91.90;103641.09;5066220;28;20035;-91
2022/01/14 03:46:39;;;;;;;78.75;11.55;;;;;;;2.15;92.12;103640.28;5069612;28;20498;-91
2022/01/14 03:49:04;;;;;;;96.18;12.63;;;;;;;2.14;91.84;103633.25;5067472;28;20028;-91
2022/01/14 03:51:30;;;;;;;37.53;9.73;;;;;;;2.21;91.90;103641.41;5055256;28;20028;-92
2022/01/14 03:53:56;;;;;;;70.10;10.85;;;;;;;2.21;91.64;103632.69;5065946;28;20036;-91
2022/01/14 03:56:23;;;;;;;81.30;11.95;;;;;;;2.20;91.66;103634.41;5056453;28;20070;-91
2022/01/14 03:58:49;;;;;;;64.53;11.02;;;;;;;2.13;91.73;103621.94;5052635;28;20052;-92
2022/01/14 04:01:14;;;;;;;155.70;16.17;;;;;;;2.03;91.54;103625.91;5051675;28;20038;-91
2022/01/14 04:03:42;;;;;;;106.47;12.68;;;;;;;2.11;91.70;103627.94;5056418;28;20024;-91
2022/01/14 04:06:10;;;;;;;95.78;11.02;;;;;;;2.03;91.65;103627.63;5065141;28;20036;-91
2022/01/14 04:08:36;;;;;;;55.13;9.73;;;;;;;2.03;91.75;103625.91;5054311;28;20036;-92
2022/01/14 04:11:03;;;;;;;97.75;12.57;;;;;;;1.98;91.77;103614.38;5052408;28;20028;-92
2022/01/14 04:13:44;;;;;;;142.15;14.63;;;;;;;1.99;91.74;103618.78;5069770;28;20028;-92
2022/01/14 04:16:10;;;;;;;104.72;12.75;;;;;;;2.01;91.72;103624.97;5065527;28;20024;-91
2022/01/14 04:18:36;;;;;;;106.93;12.70;;;;;;;1.96;91.74;103615.19;5054611;28;20024;-91
2022/01/14 04:21:01;;;;;;;59.90;9.93;;;;;;;1.98;91.89;103613.50;5051785;28;20032;-91
2022/01/14 04:23:26;;;;;;;43.95;8.05;;;;;;;2.02;91.75;103620.63;5056810;28;20012;-92
2022/01/14 04:25:53;;;;;;;41.72;9.65;;;;;;;2.00;91.31;103614.44;5065045;28;20036;-92
2022/01/14 04:28:24;;;;;;;51.28;9.65;;;;;;;2.01;91.79;103608.41;5054816;28;20032;-91
2022/01/14 04:30:54;;;;;;;64.18;9.05;;;;;;;1.98;91.78;103609.16;5055849;28;20587;-91
2022/01/14 04:33:21;;;;;;;130.07;13.73;;;;;;;2.01;91.81;103611.03;5055153;28;20044;-92
2022/01/14 04:35:47;;;;;;;54.83;11.05;;;;;;;1.96;91.98;103610.84;5051330;28;20029;-91
2022/01/14 04:38:12;;;;;;;99.88;13.57;;;;;;;1.84;91.84;103609.44;5051193;28;20399;-92
2022/01/14 04:40:37;;;;;;;34.95;9.85;;;;;;;1.98;91.94;103622.22;5050148;28;20040;-92
2022/01/14 04:43:03;;;;;;;71.22;10.57;;;;;;;1.96;91.94;103604.75;5052108;28;20690;-92
2022/01/14 04:47:59;;;;;;;174.17;18.23;;;;;;;1.94;91.53;103607.25;5066088;28;20040;-92
2022/01/14 04:50:25;;;;;;;91.03;12.48;;;;;;;1.90;91.95;103591.44;5050925;28;20437;-91
2022/01/14 04:52:50;;;;;;;67.70;12.35;;;;;;;1.94;91.78;103589.00;5055583;28;20410;-92
2022/01/14 04:55:22;;;;;;;102.72;14.23;;;;;;;1.97;91.53;103590.84;5052252;28;20026;-92
2022/01/14 04:57:48;;;;;;;108.72;13.48;;;;;;;1.87;91.73;103584.38;5065431;28;20032;-90
2022/01/14 05:00:15;;;;;;;25.77;8.27;;;;;;;2.00;91.51;103589.22;5052011;28;20032;-91
2022/01/14 05:02:41;;;;;;;145.32;16.83;;;;;;;1.81;91.88;103572.81;5050486;28;20050;-91
2022/01/14 05:05:08;;;;;;;129.13;15.18;;;;;;;1.79;91.97;103564.94;5062866;28;20032;-92
2022/01/14 05:07:35;;;;;;;36.58;9.70;;;;;;;1.82;91.70;103562.47;5051403;28;20021;-91
2022/01/14 05:12:31;;;;;;;116.20;12.23;;;;;;;1.91;91.81;103572.34;5063524;28;20422;-91
2022/01/14 05:14:57;;;;;;;117.68;15.25;;;;;;;1.77;91.80;103570.09;5065367;28;20058;-91
2022/01/14 05:17:22;;;;;;;76.22;12.15;;;;;;;1.73;92.09;103572.53;5052812;28;20059;-91
2022/01/14 05:19:48;;;;;;;24.77;6.88;;;;;;;1.79;92.40;103563.22;5053142;28;20055;-91
2022/01/14 05:22:14;;;;;;;79.28;11.60;;;;;;;1.73;91.82;103560.38;5056582;28;20627;-91
2022/01/14 05:24:39;;;;;;;33.47;7.28;;;;;;;1.79;91.76;103559.72;5065666;28;20452;-91
2022/01/14 05:27:05;;;;;;;115.07;13.77;;;;;;;1.67;92.12;103557.50;5048430;28;20029;-91
2022/01/14 05:29:31;;;;;;;75.00;12.35;;;;;;;1.61;92.19;103561.59;5050715;28;20044;-91
2022/01/14 05:32:02;;;;;;;53.85;9.75;;;;;;;1.68;92.02;103564.50;5054218;28;20053;-92
2022/01/14 05:34:32;;;;;;;87.22;12.43;;;;;;;1.68;92.25;103568.81;5052314;28;20031;-91
2022/01/14 05:36:58;;;;;;;68.10;11.30;;;;;;;1.63;92.70;103571.25;5053996;28;20036;-92
2022/01/14 05:39:24;;;;;;;62.00;10.82;;;;;;;1.67;92.02;103570.53;5055583;28;20571;-91
2022/01/14 05:41:51;;;;;;;130.77;13.88;;;;;;;1.63;92.29;103567.72;5054946;28;20107;-91
2022/01/14 05:44:16;;;;;;;98.68;13.48;;;;;;;1.55;92.25;103566.56;5053984;28;20025;-91
2022/01/14 05:46:42;;;;;;;67.88;11.73;;;;;;;1.55;92.21;103553.53;5047909;28;20538;-92
2022/01/14 05:49:07;;;;;;;52.22;9.45;;;;;;;1.60;92.26;103562.41;5054665;28;20442;-91
2022/01/14 05:51:32;;;;;;;105.22;12.70;;;;;;;1.48;92.15;103548.03;5054535;28;20033;-91
2022/01/14 05:53:58;;;;;;;115.95;15.70;;;;;;;1.48;92.07;103545.44;5064767;28;20037;-91
2022/01/14 05:56:23;;;;;;;83.38;13.55;;;;;;;1.45;91.95;103555.75;5064656;28;20487;-92
2022/01/14 05:58:49;;;;;;;81.50;13.95;;;;;;;1.36;92.30;103546.66;5050683;28;20036;-92
2022/01/14 06:01:14;;;;;;;44.97;10.77;;;;;;;1.37;92.38;103540.63;5053564;28;20034;-91
2022/01/14 06:03:39;;;;;;;26.73;8.40;;;;;;;1.47;92.28;103548.88;5065378;28;20074;-91
2022/01/14 06:06:08;;;;;;;71.38;13.05;;;;;;;1.40;92.19;103548.53;5053531;28;20066;-91
2022/01/14 06:08:33;;;;;;;65.50;13.35;;;;;;;1.28;92.37;103539.41;5058266;28;20031;-91
2022/01/14 06:10:58;;;;;;;43.28;11.23;;;;;;;1.41;92.35;103553.84;5054925;28;20384;-92
2022/01/14 06:13:24;;;;;;;34.47;8.73;;;;;;;1.46;92.16;103557.53;5057502;28;20119;-92
2022/01/14 06:15:49;;;;;;;70.80;15.02;;;;;;;1.36;92.28;103564.91;5059380;28;20043;-91
2022/01/14 06:18:15;;;;;;;85.63;14.43;;;;;;;1.36;92.61;103578.81;5056981;28;20020;-91
2022/01/14 06:20:40;;;;;;;79.68;13.55;;;;;;;1.36;92.24;103560.59;5068151;28;20028;-92
2022/01/14 06:23:05;;;;;;;57.47;10.95;;;;;;;1.43;92.39;103575.63;5056261;28;20083;-91
2022/01/14 06:25:31;;;;;;;73.28;12.25;;;;;;;1.39;92.00;103572.84;5056513;28;20082;-91
2022/01/14 06:27:56;;;;;;;90.93;12.50;;;;;;;1.37;92.10;103582.31;5066323;28;20484;-91
2022/01/14 06:30:22;;;;;;;64.65;13.25;;;;;;;1.21;92.46;103578.16;5054677;28;20037;-91
2022/01/14 06:32:55;;;;;;;65.97;11.75;;;;;;;1.33;92.44;103555.22;5067901;28;20044;-91
2022/01/14 06:35:21;;;;;;;61.35;11.23;;;;;;;1.16;92.42;103548.41;5067899;28;20021;-92
2022/01/14 06:37:46;;;;;;;56.38;11.23;;;;;;;1.27;92.87;103552.38;5055328;28;20364;-91
2022/01/14 06:40:12;;;;;;;85.10;15.25;;;;;;;1.17;92.67;103558.94;5061164;28;20539;-92
2022/01/14 06:42:37;;;;;;;62.13;10.88;;;;;;;1.29;92.28;103563.75;5054617;28;20433;-92
2022/01/14 06:45:04;;;;;;;47.90;10.88;;;;;;;1.34;92.29;103556.13;5054568;28;20036;-92
2022/01/14 06:47:30;;;;;;;51.80;10.70;;;;;;;1.37;92.13;103551.03;5055357;28;20024;-91
2022/01/14 06:49:55;;;;;;;46.10;11.55;;;;;;;1.49;92.04;103561.97;5056907;28;20126;-91
2022/01/14 06:52:20;;;;;;;112.70;15.10;;;;;;;1.47;91.93;103554.09;5055785;28;20528;-91
2022/01/14 06:54:46;;;;;;;88.82;13.80;;;;;;;1.40;92.05;103553.75;5066953;28;20066;-91
2022/01/14 06:57:11;;;;;;;94.35;12.68;;;;;;;1.46;91.82;103567.94;5055837;28;20078;-90
2022/01/14 06:59:36;;;;;;;85.07;13.80;;;;;;;1.40;91.69;103551.16;5055638;28;20028;-91
2022/01/14 07:02:02;;;;;;;99.50;13.20;;;;;;;1.28;91.86;103554.16;5052864;28;20060;-91
2022/01/14 07:04:27;;;;;;;104.53;13.48;;;;;;;1.33;92.10;103559.56;5055691;28;20460;-91
2022/01/14 07:06:53;;;;;;;99.53;13.50;;;;;;;1.27;92.05;103548.06;5056003;28;20475;-91
2022/01/14 07:09:18;;;;;;;146.60;17.25;;;;;;;1.28;91.80;103564.56;5066851;28;20024;-91
2022/01/14 07:11:47;;;;;;;64.35;11.70;;;;;;;1.23;91.99;103567.00;5054809;28;20040;-91
2022/01/14 07:14:13;;;;;;;156.85;15.27;;;;;;;1.20;91.98;103556.44;5053979;28;20017;-91
2022/01/14 07:16:39;;;;;;;84.30;11.77;;;;;;;1.25;92.25;103573.16;5049584;28;20056;-91
2022/01/14 07:19:04;;;;;;;74.03;11.32;;;;;;;1.20;92.27;103574.66;5067227;28;20028;-91
2022/01/14 07:21:33;;;;;;;117.40;12.07;;;;;;;1.16;92.09;103572.75;5052878;28;20039;-91
2022/01/14 07:23:58;;;;;;;101.40;13.02;;;;;;;1.05;92.31;103562.72;5053878;28;20025;-92
2022/01/14 07:26:24;;;;;;;68.60;11.55;;;;;;;1.04;92.37;103566.16;5053648;28;20043;-91
2022/01/14 07:28:49;;;;;;;208.63;23.63;;;;;;;0.95;92.66;103569.25;5052550;28;20025;-92
2022/01/14 07:31:14;;;;;;;98.40;11.98;;;;;;;1.08;92.13;103578.50;5051990;28;20062;-91
2022/01/14 07:33:39;;;;;;;25.20;6.82;;;;;;;1.15;92.07;103570.97;5057434;28;20024;-91
2022/01/14 07:36:05;;;;;;;80.65;12.65;;;;;;;1.14;92.12;103563.09;5057849;28;20127;-91
2022/01/14 07:38:30;;;;;;;217.43;18.63;;;;;;;1.08;92.31;103571.56;5053909;28;20028;-91
2022/01/14 07:40:56;;;;;;;114.85;13.45;;;;;;;1.18;92.37;103588.47;5066913;28;20036;-92
2022/01/14 07:43:21;;;;;;;137.40;14.38;;;;;;;1.21;92.15;103597.31;5066878;28;20024;-91
2022/01/14 07:45:47;;;;;;;72.97;11.75;;;;;;;1.16;92.46;103588.38;5053313;28;20037;-91
2022/01/14 07:48:13;;;;;;;126.18;13.98;;;;;;;1.19;92.53;103588.53;5067221;28;20635;-91
2022/01/14 07:50:39;;;;;;;162.82;17.90;;;;;;;1.17;92.18;103582.38;5056539;28;20024;-91
2022/01/14 07:53:04;;;;;;;102.05;14.77;;;;;;;1.13;92.48;103580.47;5053266;28;20598;-91
2022/01/14 07:55:30;;;;;;;70.57;9.68;;;;;;;1.25;92.25;103567.94;5055555;28;20035;-91
2022/01/14 07:57:55;;;;;;;123.40;16.50;;;;;;;1.30;92.07;103582.88;5058477;28;20459;-91
2022/01/14 08:00:20;;;;;;;137.38;15.30;;;;;;;1.30;92.11;103586.38;5055463;28;20107;-91
2022/01/14 08:02:46;;;;;;;115.45;13.98;;;;;;;1.34;92.07;103588.28;5057030;28;20151;-90
2022/01/14 08:05:12;;;;;;;100.45;16.02;;;;;;;1.42;92.24;103584.28;5056363;28;20086;-90
2022/01/14 08:07:45;;;;;;;166.73;20.50;;;;;;;1.16;92.15;103591.00;5056923;28;20636;-91
2022/01/14 08:10:11;;;;;;;163.80;18.10;;;;;;;1.17;92.10;103576.28;5064334;28;20476;-92
2022/01/14 08:12:36;;;;;;;120.93;15.30;;;;;;;1.23;92.46;103572.19;5054307;28;20046;-91
2022/01/14 08:15:04;;;;;;;158.73;17.90;;;;;;;1.05;92.47;103541.88;5053120;28;20471;-91
2022/01/14 08:17:31;;;;;;;189.15;21.20;;;;;;;1.11;92.44;103556.03;5051222;28;20028;-91
2022/01/14 08:19:56;;;;;;;159.27;19.27;;;;;;;1.04;92.56;103545.31;5055357;28;20100;-92
2022/01/14 08:22:22;;;;;;;102.40;17.08;;;;;;;1.11;92.76;103552.53;5066272;28;20531;-91
2022/01/14 08:24:47;;;;;;;127.50;17.80;;;;;;;1.26;92.29;103561.91;5051591;28;20570;-91
2022/01/14 08:27:12;;;;;;;125.88;16.88;;;;;;;1.29;92.25;103561.13;5049727;28;20556;-91
2022/01/14 08:29:38;;;;;;;172.93;19.85;;;;;;;1.30;92.20;103564.63;5064543;28;20123;-91
2022/01/14 08:32:04;;;;;;;161.95;21.75;;;;;;;1.23;92.15;103581.75;5053414;28;20091;-91
2022/01/14 08:34:30;;;;;;;95.65;12.30;;;;;;;1.38;92.20;103579.75;5056303;28;20515;-91
2022/01/14 08:36:55;;;;;;;97.18;13.27;;;;;;;1.49;92.35;103572.38;5065075;28;20028;-91
2022/01/14 08:39:21;;;;;;;75.38;15.50;;;;;;;1.61;92.19;103585.03;5056888;28;20174;-91
2022/01/14 08:41:47;;;;;;;137.55;18.58;;;;;;;1.66;92.01;103560.94;5064044;28;20033;-91
2022/01/14 08:44:14;;;;;;;87.03;14.93;;;;;;;1.71;91.87;103581.97;5057410;28;20025;-91
2022/01/14 08:46:40;;;;;;;80.28;13.40;;;;;;;1.81;91.82;103583.25;5059447;28;20028;-91
2022/01/14 08:49:05;;;;;;;83.78;15.43;;;;;;;1.84;91.36;103593.81;5055105;28;20491;-91
2022/01/14 08:51:31;;;;;;;167.63;20.20;;;;;;;1.80;91.47;103574.53;5052841;28;20467;-92
2022/01/14 08:54:02;;;;;;;70.63;14.88;;;;;;;1.88;91.92;103578.34;5053512;28;20024;-91
2022/01/14 08:56:29;;;;;;;59.78;14.40;;;;;;;1.93;91.53;103574.19;5055973;28;20115;-91
2022/01/14 08:58:54;;;;;;;75.97;15.65;;;;;;;1.95;91.48;103567.28;5054134;28;20026;-91
2022/01/14 09:01:19;;;;;;;45.38;13.57;;;;;;;1.98;91.44;103553.50;5054390;28;20487;-91
2022/01/14 09:03:45;;;;;;;62.65;13.30;;;;;;;1.86;90.71;103543.47;5051843;28;20028;-91
2022/01/14 09:06:11;;;;;;;42.00;13.82;;;;;;;1.99;91.62;103582.25;5050028;28;20033;-92
2022/01/14 09:08:36;;;;;;;55.28;13.95;;;;;;;2.03;90.74;103578.03;5050213;28;20025;-92
2022/01/14 09:11:01;;;;;;;142.43;17.17;;;;;;;1.95;90.79;103582.94;5064817;28;20032;-91
2022/01/14 09:13:27;;;;;;;109.88;17.05;;;;;;;1.87;91.10;103563.53;5051483;28;20035;-92
2022/01/14 09:15:52;;;;;;;77.00;14.13;;;;;;;2.02;91.24;103573.66;5063708;28;20478;-92
2022/01/14 09:18:17;;;;;;;101.30;16.23;;;;;;;2.12;90.97;103561.84;5053187;28;20039;-93
2022/01/14 09:20:43;;;;;;;163.88;18.23;;;;;;;2.01;90.83;103559.72;5054619;28;20063;-91
2022/01/14 09:23:15;;;;;;;95.95;15.20;;;;;;;2.22;90.97;103577.03;5056556;28;20417;-92
2022/01/14 09:25:40;;;;;;;74.32;14.32;;;;;;;2.29;90.66;103572.13;5051400;28;20596;-92
2022/01/14 09:28:06;;;;;;;39.47;10.63;;;;;;;2.22;90.37;103567.47;5050277;28;20111;-91
2022/01/14 09:30:31;;;;;;;59.20;11.80;;;;;;;2.20;90.49;103576.09;5051032;28;20115;-92
2022/01/14 09:32:56;;;;;;;58.70;13.60;;;;;;;2.23;90.82;103568.38;5064288;28;20051;-91
2022/01/14 09:35:23;;;;;;;77.82;15.05;;;;;;;2.39;90.39;103581.19;5052813;28;20651;-91
2022/01/14 09:37:50;;;;;;;96.30;15.25;;;;;;;2.47;91.01;103590.19;5054257;28;20032;-91
2022/01/14 09:40:16;;;;;;;99.03;15.27;;;;;;;2.48;90.01;103591.09;5053131;28;20487;-91
2022/01/14 09:42:47;;;;;;;105.85;14.70;;;;;;;2.51;90.31;103594.69;5065584;28;20025;-91
2022/01/14 09:45:12;;;;;;;121.55;17.75;;;;;;;2.40;90.10;103596.00;5052442;28;20032;-91
2022/01/14 09:47:38;;;;;;;147.30;18.15;;;;;;;2.37;90.21;103598.50;5053579;28;20823;-92
2022/01/14 09:50:04;;;;;;;98.72;15.00;;;;;;;2.44;90.35;103595.28;5051987;28;20490;-91
2022/01/14 09:52:30;;;;;;;68.03;14.77;;;;;;;2.49;90.32;103609.41;5055863;28;20032;-91
2022/01/14 09:54:55;;;;;;;108.38;16.83;;;;;;;2.47;90.09;103607.56;5048172;28;20486;-91
2022/01/14 09:57:21;;;;;;;100.88;15.07;;;;;;;2.49;90.40;103601.56;5052390;28;20043;-91
2022/01/14 09:59:46;;;;;;;70.95;16.48;;;;;;;2.67;90.67;103608.31;5053330;28;20025;-91
2022/01/14 10:02:37;;;;;;;112.47;16.63;;;;;;;2.70;90.65;103608.41;5053377;28;20420;-91
2022/01/14 10:05:04;;;;;;;100.97;16.83;;;;;;;2.72;90.43;103612.88;5049915;28;20111;-91
2022/01/14 10:07:30;;;;;;;57.38;15.68;;;;;;;2.77;90.20;103607.81;5054832;28;20629;-91
2022/01/14 10:09:58;;;;;;;94.50;16.80;;;;;;;2.88;90.00;103622.16;5064616;28;20407;-91
2022/01/14 10:12:25;;;;;;;87.45;15.80;;;;;;;2.77;89.56;103602.59;5051078;28;20020;-92
2022/01/14 10:15:08;;;;;;;53.15;14.88;;;;;;;2.84;90.34;103611.53;5053877;28;20043;-91
2022/01/14 10:17:42;;;;;;;43.42;14.90;;;;;;;2.93;89.85;103610.16;5050654;28;20082;-92
2022/01/14 10:20:10;;;;;;;53.90;15.25;;;;;;;2.90;89.62;103602.22;5054532;28;20423;-91
2022/01/14 10:22:41;;;;;;;74.65;17.08;;;;;;;2.94;89.91;103617.19;5051621;28;20024;-91
2022/01/14 10:25:09;;;;;;;54.22;16.60;;;;;;;2.90;89.50;103615.28;5046614;28;20475;-91
2022/01/14 10:27:54;;;;;;;49.15;15.35;;;;;;;2.88;89.79;103610.81;5048249;28;20403;-91
2022/01/14 10:30:34;;;;;;;61.10;16.63;;;;;;;2.99;89.58;103607.78;5046146;28;20037;-92
2022/01/14 10:33:05;;;;;;;70.15;18.60;;;;;;;2.93;89.46;103601.41;5049872;28;20177;-91
2022/01/14 10:35:51;;;;;;;58.72;19.35;;;;;;;3.03;90.12;103608.75;5063987;28;20036;-91
2022/01/14 10:38:19;;;;;;;56.92;19.05;;;;;;;3.03;89.39;103600.91;5048241;28;20527;-91
2022/01/14 10:40:47;;;;;;;59.38;18.00;;;;;;;3.01;89.76;103598.25;5055008;28;20025;-91
2022/01/14 10:43:15;;;;;;;48.85;15.20;;;;;;;3.11;89.66;103598.56;5052058;28;20087;-91
2022/01/14 10:45:43;;;;;;;53.22;18.63;;;;;;;2.99;89.41;103596.44;5048507;28;20383;-91
2022/01/14 10:48:19;;;;;;;34.13;15.88;;;;;;;3.04;89.80;103598.38;5050123;28;20123;-91
2022/01/14 10:50:54;;;;;;;33.53;16.23;;;;;;;3.09;89.49;103597.66;5045827;28;20115;-91
2022/01/14 10:53:24;;;;;;;35.13;15.32;;;;;;;3.16;89.41;103602.22;5054225;28;20663;-92
2022/01/14 10:55:53;;;;;;;41.75;16.23;;;;;;;3.10;89.03;103594.19;5055114;28;20033;-92
2022/01/14 10:58:25;;;;;;;35.63;15.93;;;;;;;3.12;89.18;103588.16;5058302;28;20502;-91
2022/01/14 11:01:13;;;;;;;37.72;15.45;;;;;;;3.22;89.61;103594.63;5066681;28;20067;-92
2022/01/14 11:03:44;;;;;;;35.08;15.15;;;;;;;3.34;89.35;103581.94;5056304;28;20052;-91
2022/01/14 11:06:18;;;;;;;39.25;17.52;;;;;;;3.32;89.27;103576.69;5067730;28;20033;-91
2022/01/14 11:08:44;;;;;;;44.17;18.08;;;;;;;3.27;89.21;103572.13;5053073;28;20041;-91
2022/01/14 11:11:10;;;;;;;38.67;17.50;;;;;;;3.29;89.35;103562.59;5049815;28;20576;-92
2022/01/14 11:13:36;;;;;;;35.55;17.17;;;;;;;3.48;89.44;103571.94;5052441;28;20484;-91
2022/01/14 11:16:02;;;;;;;42.15;19.48;;;;;;;3.48;88.94;103577.19;5060630;28;20027;-92
2022/01/14 11:18:28;;;;;;;35.80;17.92;;;;;;;3.47;88.33;103568.44;5064899;28;20028;-92
2022/01/14 11:23:37;;;;;;;34.53;17.48;;;;;;;3.52;88.73;103566.88;5065700;28;20043;-91
2022/01/14 11:26:15;;;;;;;37.70;18.23;;;;;;;3.50;88.90;103571.19;5063315;28;20028;-92
2022/01/14 11:28:42;;;;;;;32.70;14.98;;;;;;;3.66;89.14;103569.06;5060619;28;20070;-92
2022/01/14 11:31:25;;;;;;;35.00;15.93;;;;;;;3.64;88.80;103566.41;5060373;28;20039;-91
2022/01/14 11:33:50;;;;;;;33.20;16.33;;;;;;;3.64;89.19;103565.47;5057600;28;20055;-92
2022/01/14 11:36:16;;;;;;;36.53;17.13;;;;;;;3.72;88.77;103570.13;5056212;28;20060;-92
2022/01/14 11:38:44;;;;;;;31.50;14.88;;;;;;;3.71;88.91;103563.13;5053596;28;20050;-91
2022/01/14 11:41:16;;;;;;;39.03;18.80;;;;;;;3.67;88.91;103574.31;5066184;28;20032;-93